PWSweather.com
Personal Weather Stations
Station Observations
KOHCLEVE171
Cleveland, OH

Cleveland, OH

Lat: 41.48646164, Lon: -81.46408081

Elevation: 1059

Station Type:

Latest ConditionsUpdated 6:19:00 AM EDT Saturday, May 25, 2019
Currently Today's Max Today's Min Today's Average
Temperature 60.1°F15.6°C 61.9°F16.6°C 59.2°F15.1°C 60.0°F15.6°C
Dew Point 54.0°F12.2°C 54.0°F12.2°C 52.2°F11.2°C 53.0°F11.7°C
Winds 2.0 mph SE3.2 kmh SE 2.5 mph -4.0 kmh - - 0.9 mph 1.4 kmh
Wind Gusts 3.4 mph5.5 kmh 3.4 mph5.5 kmh - -
Humidity 80% 80% 73% 78%
Pressure 30.02 in1016.6 mb 30.09 in1019.0 mb 30.02 in1016.6 mb -
Hour Temp Dew Point Humidity Winds Wind Gusts Pressure Precip Precip Rate Daily Precip Total
06:19 AM 60.1°F15.6°C 54.0°F12.2°C 80% 2.0 mph SE3.2 kmh SE 3.4 mph5.5 kmh 30.02 in1016.6 mb 0.00 in0.0 mm 0.00 in0.0 mm 0.00 in0.0 mm
06:14 AM 59.9°F15.5°C 53.8°F12.1°C 80% 0.4 mph SSE0.6 kmh SSE 1.6 mph2.6 kmh 30.02 in1016.6 mb 0.00 in0.0 mm 0.00 in0.0 mm 0.00 in0.0 mm
06:09 AM 59.9°F15.5°C 53.8°F12.1°C 80% 0.7 mph S1.1 kmh S 1.3 mph2.1 kmh 30.02 in1016.6 mb 0.00 in0.0 mm 0.00 in0.0 mm 0.00 in0.0 mm
06:04 AM 59.9°F15.5°C 53.8°F12.1°C 80% 0.4 mph SE0.6 kmh SE 1.1 mph1.8 kmh 30.02 in1016.6 mb 0.00 in0.0 mm 0.00 in0.0 mm 0.00 in0.0 mm
05:59 AM 59.7°F15.4°C 53.6°F12.0°C 80% 0.2 mph E0.3 kmh E 1.6 mph2.6 kmh 30.02 in1016.6 mb 0.00 in0.0 mm 0.00 in0.0 mm 0.00 in0.0 mm
05:54 AM 59.7°F15.4°C 53.6°F12.0°C 80% 0.4 mph ESE0.6 kmh ESE 1.3 mph2.1 kmh 30.02 in1016.6 mb 0.00 in0.0 mm 0.00 in0.0 mm 0.00 in0.0 mm
05:49 AM 59.9°F15.5°C 53.8°F12.1°C 80% 1.1 mph E1.8 kmh E 1.8 mph2.9 kmh 30.02 in1016.6 mb 0.00 in0.0 mm 0.00 in0.0 mm 0.00 in0.0 mm
05:44 AM 59.9°F15.5°C 53.8°F12.1°C 80% Calm Calm -- 30.02 in1016.6 mb 0.00 in0.0 mm 0.00 in0.0 mm 0.00 in0.0 mm
05:39 AM 59.9°F15.5°C 53.8°F12.1°C 80% 0.7 mph ESE1.1 kmh ESE 1.8 mph2.9 kmh 30.02 in1016.6 mb 0.00 in0.0 mm 0.00 in0.0 mm 0.00 in0.0 mm
05:34 AM 59.9°F15.5°C 53.8°F12.1°C 80% 0.4 mph E0.6 kmh E 1.8 mph2.9 kmh 30.03 in1016.9 mb 0.00 in0.0 mm 0.00 in0.0 mm 0.00 in0.0 mm
05:29 AM 60.1°F15.6°C 54.0°F12.2°C 80% 0.2 mph NE0.3 kmh NE 1.1 mph1.8 kmh 30.03 in1016.9 mb 0.00 in0.0 mm 0.00 in0.0 mm 0.00 in0.0 mm
05:24 AM 60.1°F15.6°C 53.6°F12.0°C 79% 0.2 mph ENE0.3 kmh ENE 1.6 mph2.6 kmh 30.02 in1016.6 mb 0.00 in0.0 mm 0.00 in0.0 mm 0.00 in0.0 mm
05:19 AM 60.3°F15.7°C 53.4°F11.9°C 78% 0.2 mph ESE0.3 kmh ESE 1.1 mph1.8 kmh 30.02 in1016.6 mb 0.00 in0.0 mm 0.00 in0.0 mm 0.00 in0.0 mm
05:14 AM 60.3°F15.7°C 53.4°F11.9°C 78% 2.0 mph SE3.2 kmh SE 2.5 mph4.0 kmh 30.02 in1016.6 mb 0.00 in0.0 mm 0.00 in0.0 mm 0.00 in0.0 mm
05:09 AM 60.3°F15.7°C 52.7°F11.5°C 76% 2.0 mph SE3.2 kmh SE 2.5 mph4.0 kmh 30.03 in1016.9 mb 0.00 in0.0 mm 0.00 in0.0 mm 0.00 in0.0 mm
05:02 AM 60.3°F15.7°C 52.7°F11.5°C 76% 1.8 mph ESE2.9 kmh ESE 2.5 mph4.0 kmh 30.03 in1016.9 mb 0.00 in0.0 mm 0.00 in0.0 mm 0.00 in0.0 mm
04:59 AM 60.4°F15.8°C 52.9°F11.6°C 76% 1.8 mph ESE2.9 kmh ESE 2.7 mph4.3 kmh 30.03 in1016.9 mb 0.00 in0.0 mm 0.00 in0.0 mm 0.00 in0.0 mm
04:54 AM 60.4°F15.8°C 52.9°F11.6°C 76% 2.2 mph ESE3.5 kmh ESE 2.7 mph4.3 kmh 30.03 in1016.9 mb 0.00 in0.0 mm 0.00 in0.0 mm 0.00 in0.0 mm
04:49 AM 60.4°F15.8°C 52.9°F11.6°C 76% 1.8 mph SE2.9 kmh SE 2.9 mph4.7 kmh 30.03 in1016.9 mb 0.00 in0.0 mm 0.00 in0.0 mm 0.00 in0.0 mm
04:44 AM 60.4°F15.8°C 52.9°F11.6°C 76% 2.5 mph SE4.0 kmh SE 2.9 mph4.7 kmh 30.04 in1017.3 mb 0.00 in0.0 mm 0.00 in0.0 mm 0.00 in0.0 mm
04:39 AM 60.4°F15.8°C 52.9°F11.6°C 76% 1.8 mph SE2.9 kmh SE 2.2 mph3.5 kmh 30.04 in1017.3 mb 0.00 in0.0 mm 0.00 in0.0 mm 0.00 in0.0 mm
04:34 AM 60.4°F15.8°C 52.9°F11.6°C 76% 1.3 mph SE2.1 kmh SE 1.8 mph2.9 kmh 30.04 in1017.3 mb 0.00 in0.0 mm 0.00 in0.0 mm 0.00 in0.0 mm
04:29 AM 60.4°F15.8°C 52.9°F11.6°C 76% 1.6 mph SE2.6 kmh SE 2.0 mph3.2 kmh 30.04 in1017.3 mb 0.00 in0.0 mm 0.00 in0.0 mm 0.00 in0.0 mm
04:24 AM 60.4°F15.8°C 52.9°F11.6°C 76% 1.8 mph ESE2.9 kmh ESE 2.5 mph4.0 kmh 30.04 in1017.3 mb 0.00 in0.0 mm 0.00 in0.0 mm 0.00 in0.0 mm
04:19 AM 60.3°F15.7°C 52.7°F11.5°C 76% 1.1 mph ESE1.8 kmh ESE 2.0 mph3.2 kmh 30.04 in1017.3 mb 0.00 in0.0 mm 0.00 in0.0 mm 0.00 in0.0 mm
04:14 AM 60.3°F15.7°C 52.7°F11.5°C 76% 1.6 mph ESE2.6 kmh ESE 2.0 mph3.2 kmh 30.04 in1017.3 mb 0.00 in0.0 mm 0.00 in0.0 mm 0.00 in0.0 mm
04:09 AM 60.1°F15.6°C 52.5°F11.4°C 76% 1.1 mph SE1.8 kmh SE 2.7 mph4.3 kmh 30.04 in1017.3 mb 0.00 in0.0 mm 0.00 in0.0 mm 0.00 in0.0 mm
04:04 AM 60.1°F15.6°C 52.5°F11.4°C 76% 1.6 mph SE2.6 kmh SE 1.8 mph2.9 kmh 30.04 in1017.3 mb 0.00 in0.0 mm 0.00 in0.0 mm 0.00 in0.0 mm
03:59 AM 60.1°F15.6°C 52.5°F11.4°C 76% 1.6 mph SE2.6 kmh SE 2.5 mph4.0 kmh 30.04 in1017.3 mb 0.00 in0.0 mm 0.00 in0.0 mm 0.00 in0.0 mm
03:54 AM 59.9°F15.5°C 52.3°F11.3°C 76% 1.6 mph SE2.6 kmh SE 2.0 mph3.2 kmh 30.05 in1017.6 mb 0.00 in0.0 mm 0.00 in0.0 mm 0.00 in0.0 mm
03:49 AM 59.9°F15.5°C 52.3°F11.3°C 76% 1.6 mph ESE2.6 kmh ESE 2.2 mph3.5 kmh 30.05 in1017.6 mb 0.00 in0.0 mm 0.00 in0.0 mm 0.00 in0.0 mm
03:44 AM 59.7°F15.4°C 52.2°F11.2°C 76% 1.3 mph SE2.1 kmh SE 2.2 mph3.5 kmh 30.05 in1017.6 mb 0.00 in0.0 mm 0.00 in0.0 mm 0.00 in0.0 mm
03:39 AM 59.7°F15.4°C 52.2°F11.2°C 76% 2.0 mph ESE3.2 kmh ESE 2.9 mph4.7 kmh 30.05 in1017.6 mb 0.00 in0.0 mm 0.00 in0.0 mm 0.00 in0.0 mm
03:34 AM 59.5°F15.3°C 52.7°F11.5°C 78% 1.3 mph SE2.1 kmh SE 2.7 mph4.3 kmh 30.05 in1017.6 mb 0.00 in0.0 mm 0.00 in0.0 mm 0.00 in0.0 mm
03:29 AM 59.5°F15.3°C 52.7°F11.5°C 78% 1.3 mph SE2.1 kmh SE 1.8 mph2.9 kmh 30.05 in1017.6 mb 0.00 in0.0 mm 0.00 in0.0 mm 0.00 in0.0 mm
03:24 AM 59.5°F15.3°C 52.7°F11.5°C 78% 1.8 mph SE2.9 kmh SE 2.2 mph3.5 kmh 30.05 in1017.6 mb 0.00 in0.0 mm 0.00 in0.0 mm 0.00 in0.0 mm
03:19 AM 59.4°F15.2°C 52.9°F11.6°C 79% 1.6 mph SE2.6 kmh SE 2.0 mph3.2 kmh 30.05 in1017.6 mb 0.00 in0.0 mm 0.00 in0.0 mm 0.00 in0.0 mm
03:14 AM 59.4°F15.2°C 52.9°F11.6°C 79% 1.1 mph SE1.8 kmh SE 1.6 mph2.6 kmh 30.05 in1017.6 mb 0.00 in0.0 mm 0.00 in0.0 mm 0.00 in0.0 mm
03:09 AM 59.2°F15.1°C 52.7°F11.5°C 79% 0.9 mph SE1.4 kmh SE 1.6 mph2.6 kmh 30.06 in1017.9 mb 0.00 in0.0 mm 0.00 in0.0 mm 0.00 in0.0 mm
03:04 AM 59.2°F15.1°C 52.7°F11.5°C 79% 1.3 mph SE2.1 kmh SE 1.8 mph2.9 kmh 30.05 in1017.6 mb 0.00 in0.0 mm 0.00 in0.0 mm 0.00 in0.0 mm
02:59 AM 59.2°F15.1°C 52.7°F11.5°C 79% 0.9 mph SE1.4 kmh SE 2.2 mph3.5 kmh 30.05 in1017.6 mb 0.00 in0.0 mm 0.00 in0.0 mm 0.00 in0.0 mm
02:54 AM 59.2°F15.1°C 52.7°F11.5°C 79% Calm Calm 1.6 mph2.6 kmh 30.06 in1017.9 mb 0.00 in0.0 mm 0.00 in0.0 mm 0.00 in0.0 mm
02:49 AM 59.4°F15.2°C 52.5°F11.4°C 78% Calm Calm -- 30.06 in1017.9 mb 0.00 in0.0 mm 0.00 in0.0 mm 0.00 in0.0 mm
02:44 AM 59.2°F15.1°C 52.7°F11.5°C 79% 0.9 mph SSW1.4 kmh SSW 1.6 mph2.6 kmh 30.06 in1017.9 mb 0.00 in0.0 mm 0.00 in0.0 mm 0.00 in0.0 mm
02:39 AM 59.2°F15.1°C 52.7°F11.5°C 79% 1.1 mph S1.8 kmh S 1.8 mph2.9 kmh 30.06 in1017.9 mb 0.00 in0.0 mm 0.00 in0.0 mm 0.00 in0.0 mm
02:34 AM 59.2°F15.1°C 52.7°F11.5°C 79% 0.4 mph S0.6 kmh S 1.3 mph2.1 kmh 30.06 in1017.9 mb 0.00 in0.0 mm 0.00 in0.0 mm 0.00 in0.0 mm
02:29 AM 59.4°F15.2°C 52.5°F11.4°C 78% 0.9 mph S1.4 kmh S 1.3 mph2.1 kmh 30.05 in1017.6 mb 0.00 in0.0 mm 0.00 in0.0 mm 0.00 in0.0 mm
02:24 AM 59.4°F15.2°C 52.9°F11.6°C 79% 0.9 mph S1.4 kmh S 1.6 mph2.6 kmh 30.06 in1017.9 mb 0.00 in0.0 mm 0.00 in0.0 mm 0.00 in0.0 mm
02:19 AM 59.4°F15.2°C 52.9°F11.6°C 79% 1.1 mph S1.8 kmh S 1.8 mph2.9 kmh 30.06 in1017.9 mb 0.00 in0.0 mm 0.00 in0.0 mm 0.00 in0.0 mm
02:14 AM 59.4°F15.2°C 52.9°F11.6°C 79% 1.1 mph S1.8 kmh S 2.0 mph3.2 kmh 30.06 in1017.9 mb 0.00 in0.0 mm 0.00 in0.0 mm 0.00 in0.0 mm
02:09 AM 59.4°F15.2°C 52.5°F11.4°C 78% 1.3 mph SSE2.1 kmh SSE 1.8 mph2.9 kmh 30.07 in1018.3 mb 0.00 in0.0 mm 0.00 in0.0 mm 0.00 in0.0 mm
02:04 AM 59.4°F15.2°C 52.9°F11.6°C 79% 0.7 mph SSW1.1 kmh SSW 1.6 mph2.6 kmh 30.07 in1018.3 mb 0.00 in0.0 mm 0.00 in0.0 mm 0.00 in0.0 mm
01:59 AM 59.5°F15.3°C 52.7°F11.5°C 78% 0.7 mph S1.1 kmh S 1.8 mph2.9 kmh 30.07 in1018.3 mb 0.00 in0.0 mm 0.00 in0.0 mm 0.00 in0.0 mm
01:54 AM 59.5°F15.3°C 52.7°F11.5°C 78% 1.3 mph S2.1 kmh S 1.8 mph2.9 kmh 30.07 in1018.3 mb 0.00 in0.0 mm 0.00 in0.0 mm 0.00 in0.0 mm
01:49 AM 59.7°F15.4°C 53.2°F11.8°C 79% 1.1 mph S1.8 kmh S 1.6 mph2.6 kmh 30.07 in1018.3 mb 0.00 in0.0 mm 0.00 in0.0 mm 0.00 in0.0 mm
01:44 AM 59.7°F15.4°C 53.2°F11.8°C 79% 0.7 mph S1.1 kmh S 1.3 mph2.1 kmh 30.07 in1018.3 mb 0.00 in0.0 mm 0.00 in0.0 mm 0.00 in0.0 mm
01:39 AM 59.7°F15.4°C 53.2°F11.8°C 79% Calm Calm -- 30.07 in1018.3 mb 0.00 in0.0 mm 0.00 in0.0 mm 0.00 in0.0 mm
01:34 AM 59.7°F15.4°C 53.2°F11.8°C 79% 0.4 mph SSW0.6 kmh SSW 1.8 mph2.9 kmh 30.07 in1018.3 mb 0.00 in0.0 mm 0.00 in0.0 mm 0.00 in0.0 mm
01:29 AM 59.9°F15.5°C 53.1°F11.7°C 78% Calm Calm -- 30.07 in1018.3 mb 0.00 in0.0 mm 0.00 in0.0 mm 0.00 in0.0 mm
01:24 AM 59.9°F15.5°C 53.1°F11.7°C 78% Calm Calm -- 30.08 in1018.6 mb 0.00 in0.0 mm 0.00 in0.0 mm 0.00 in0.0 mm
01:19 AM 60.1°F15.6°C 53.2°F11.8°C 78% 1.1 mph SSW1.8 kmh SSW 1.3 mph2.1 kmh 30.08 in1018.6 mb 0.00 in0.0 mm 0.00 in0.0 mm 0.00 in0.0 mm
01:14 AM 60.1°F15.6°C 53.2°F11.8°C 78% 0.4 mph SSW0.6 kmh SSW 1.1 mph1.8 kmh 30.08 in1018.6 mb 0.00 in0.0 mm 0.00 in0.0 mm 0.00 in0.0 mm
01:09 AM 60.3°F15.7°C 53.4°F11.9°C 78% 0.2 mph SSW0.3 kmh SSW 1.1 mph1.8 kmh 30.08 in1018.6 mb 0.00 in0.0 mm 0.00 in0.0 mm 0.00 in0.0 mm
01:04 AM 60.3°F15.7°C 52.7°F11.5°C 76% 0.4 mph SSE0.6 kmh SSE 1.1 mph1.8 kmh 30.08 in1018.6 mb 0.00 in0.0 mm 0.00 in0.0 mm 0.00 in0.0 mm
12:59 AM 60.4°F15.8°C 52.9°F11.6°C 76% 1.1 mph SSW1.8 kmh SSW 1.8 mph2.9 kmh 30.08 in1018.6 mb 0.00 in0.0 mm 0.00 in0.0 mm 0.00 in0.0 mm
12:54 AM 60.4°F15.8°C 52.9°F11.6°C 76% 0.2 mph S0.3 kmh S 1.1 mph1.8 kmh 30.08 in1018.6 mb 0.00 in0.0 mm 0.00 in0.0 mm 0.00 in0.0 mm
12:49 AM 60.6°F15.9°C 53.1°F11.7°C 76% Calm Calm -- 30.09 in1019.0 mb 0.00 in0.0 mm 0.00 in0.0 mm 0.00 in0.0 mm
12:44 AM 60.8°F16.0°C 53.2°F11.8°C 76% 0.2 mph S0.3 kmh S 1.3 mph2.1 kmh 30.09 in1019.0 mb 0.00 in0.0 mm 0.00 in0.0 mm 0.00 in0.0 mm
12:39 AM 60.8°F16.0°C 53.2°F11.8°C 76% Calm Calm -- 30.09 in1019.0 mb 0.00 in0.0 mm 0.00 in0.0 mm 0.00 in0.0 mm
12:34 AM 61.0°F16.1°C 53.1°F11.7°C 75% Calm Calm -- 30.09 in1019.0 mb 0.00 in0.0 mm 0.00 in0.0 mm 0.00 in0.0 mm
12:29 AM 61.2°F16.2°C 53.2°F11.8°C 75% 0.7 mph S1.1 kmh S 1.1 mph1.8 kmh 30.09 in1019.0 mb 0.00 in0.0 mm 0.00 in0.0 mm 0.00 in0.0 mm
12:24 AM 61.2°F16.2°C 53.2°F11.8°C 75% 0.2 mph S0.3 kmh S 1.1 mph1.8 kmh 30.09 in1019.0 mb 0.00 in0.0 mm 0.00 in0.0 mm 0.00 in0.0 mm
12:19 AM 61.3°F16.3°C 53.1°F11.7°C 74% Calm Calm -- 30.09 in1019.0 mb 0.00 in0.0 mm 0.00 in0.0 mm 0.00 in0.0 mm
12:14 AM 61.5°F16.4°C 53.2°F11.8°C 74% 0.2 mph NE0.3 kmh NE 1.1 mph1.8 kmh 30.09 in1019.0 mb 0.00 in0.0 mm 0.00 in0.0 mm 0.00 in0.0 mm
12:09 AM 61.7°F16.5°C 52.9°F11.6°C 73% Calm Calm 1.1 mph1.8 kmh 30.09 in1019.0 mb 0.00 in0.0 mm 0.00 in0.0 mm 0.00 in0.0 mm
12:04 AM 61.9°F16.6°C 53.1°F11.7°C 73% 0.9 mph S1.4 kmh S 1.6 mph2.6 kmh 30.09 in1019.0 mb 0.00 in0.0 mm 0.00 in0.0 mm 0.00 in0.0 mm